Time;durP1;ratioP1;P1;durP2;ratioP2;P2;SDS_P1;SDS_P2;PMS_P1;PMS_P2;Temp;Humidity;BMP_temperature;BMP_pressure;BME280_temperature;BME280_humidity;BME280_pressure;Samples;Min_cycle;Max_cycle;Signal;HPM_P1;HPM_P2
2021/05/20 12:05:23;;;;;;;9.73;1.38;;;21.40;57.60;;;;;;5248733;27;21097;-59
2021/05/20 12:08:19;;;;;;;8.32;1.42;;;21.40;58.10;;;;;;5209091;28;20056;-60
2021/05/20 12:10:52;;;;;;;3.35;0.98;;;21.60;57.90;;;;;;5202507;28;20308;-59
2021/05/20 12:13:35;;;;;;;7.10;1.02;;;21.70;57.70;;;;;;5205478;28;20043;-59
2021/05/20 12:16:08;;;;;;;3.95;1.13;;;21.70;57.50;;;;;;5208654;28;21106;-59
2021/05/20 12:20:52;;;;;;;6.57;1.00;;;21.90;56.50;;;;;;5229901;27;20856;-60
2021/05/20 12:23:25;;;;;;;6.53;1.40;;;22.00;57.10;;;;;;5211902;28;20065;-58
2021/05/20 12:25:57;;;;;;;5.50;1.10;;;22.10;57.40;;;;;;5205196;28;20063;-61
2021/05/20 12:28:30;;;;;;;7.53;0.90;;;22.20;56.50;;;;;;5207690;28;20044;-60
2021/05/20 12:31:02;;;;;;;7.30;1.30;;;22.20;56.30;;;;;;5203723;28;20573;-57
2021/05/20 12:33:38;;;;;;;7.90;1.10;;;22.30;56.20;;;;;;5201269;28;20052;-58
2021/05/20 12:36:32;;;;;;;3.63;1.30;;;22.30;56.20;;;;;;5207653;28;20059;-59
2021/05/20 12:39:04;;;;;;;4.18;1.10;;;22.40;56.00;;;;;;5208020;28;20048;-61
2021/05/20 12:41:37;;;;;;;8.82;1.20;;;22.60;55.60;;;;;;5185723;28;20048;-62
2021/05/20 12:44:15;;;;;;;12.17;1.67;;;22.70;55.20;;;;;;5199852;28;20056;-60
2021/05/20 12:46:47;;;;;;;6.72;1.25;;;22.80;55.10;;;;;;5209125;28;20420;-60
2021/05/20 12:49:23;;;;;;;6.00;1.23;;;22.90;54.90;;;;;;5204824;28;20049;-61
2021/05/20 12:52:00;;;;;;;9.30;1.20;;;22.90;54.90;;;;;;5213129;28;20048;-61
2021/05/20 12:54:32;;;;;;;8.27;1.30;;;23.00;54.70;;;;;;5197770;28;20592;-61
2021/05/20 12:57:07;;;;;;;10.07;1.43;;;23.00;54.80;;;;;;5188470;28;20563;-58
2021/05/20 12:59:41;;;;;;;11.95;1.58;;;23.10;54.70;;;;;;5193533;28;20313;-61
2021/05/20 13:02:18;;;;;;;19.40;2.05;;;23.10;54.50;;;;;;5200728;28;20052;-61
2021/05/20 13:04:51;;;;;;;11.32;1.00;;;23.20;54.40;;;;;;5194283;28;21040;-60
2021/05/20 13:07:31;;;;;;;9.15;1.38;;;23.30;54.40;;;;;;5160321;28;20052;-60
2021/05/20 13:10:05;;;;;;;11.57;1.55;;;23.30;54.30;;;;;;5171041;28;20048;-61
2021/05/20 13:23:51;;;;;;;4.50;0.70;;;22.80;47.00;;;;;;5208987;27;20754;-60
2021/05/20 13:26:24;;;;;;;1.33;0.80;;;22.50;49.70;;;;;;5158475;28;20045;-54
2021/05/20 13:28:56;;;;;;;9.32;0.98;;;22.50;51.50;;;;;;5170954;28;20056;-60
2021/05/20 13:31:29;;;;;;;6.90;0.90;;;22.60;51.90;;;;;;5184723;28;20634;-59
2021/05/20 13:34:01;;;;;;;5.00;0.90;;;22.70;52.00;;;;;;5166402;28;21002;-59
2021/05/20 13:36:34;;;;;;;2.55;1.10;;;22.80;52.00;;;;;;5176323;28;20056;-60
2021/05/20 13:39:06;;;;;;;8.93;1.10;;;22.80;52.10;;;;;;5185822;28;20049;-58
2021/05/20 13:41:39;;;;;;;5.65;1.10;;;22.80;52.20;;;;;;5189925;28;20084;-60
2021/05/20 13:44:11;;;;;;;4.63;1.00;;;22.70;52.20;;;;;;5178434;28;20565;-58
2021/05/20 13:46:44;;;;;;;17.30;2.45;;;22.80;52.40;;;;;;5171754;28;20419;-59
2021/05/20 13:49:18;;;;;;;6.15;1.60;;;22.80;53.20;;;;;;5187693;28;20562;-60
2021/05/20 13:51:55;;;;;;;7.28;1.40;;;22.80;53.40;;;;;;5179897;28;20049;-60
2021/05/20 13:54:27;;;;;;;7.13;1.52;;;22.90;53.60;;;;;;5175457;28;20060;-59
2021/05/20 13:57:01;;;;;;;12.27;1.92;;;22.90;54.10;;;;;;5179820;28;20743;-56
2021/05/20 13:59:34;;;;;;;16.30;3.10;;;23.00;54.40;;;;;;5178075;28;20425;-57
2021/05/20 14:02:10;;;;;;;11.85;1.23;;;22.90;54.50;;;;;;5185072;28;20652;-60
2021/05/20 14:04:43;;;;;;;10.88;2.00;;;22.90;54.60;;;;;;5184665;28;20049;-57
2021/05/20 14:07:17;;;;;;;6.20;1.33;;;22.90;55.20;;;;;;5178914;28;20050;-57
2021/05/20 14:09:50;;;;;;;12.35;1.65;;;22.90;55.40;;;;;;5171113;28;20041;-57
2021/05/20 14:12:23;;;;;;;6.00;1.20;;;22.90;55.90;;;;;;5164837;28;20514;-55
2021/05/20 14:14:57;;;;;;;7.95;1.52;;;22.80;55.20;;;;;;5189287;28;20513;-53
2021/05/20 14:17:30;;;;;;;9.25;1.08;;;22.80;55.10;;;;;;5165617;28;20057;-59
2021/05/20 14:20:07;;;;;;;9.23;1.48;;;22.80;55.00;;;;;;5188267;28;20064;-56
2021/05/20 14:22:39;;;;;;;9.90;1.50;;;22.80;54.90;;;;;;5160125;28;20544;-56
2021/05/20 14:25:14;;;;;;;5.27;0.90;;;22.80;54.80;;;;;;5170431;28;20324;-57
2021/05/20 14:27:46;;;;;;;10.80;1.30;;;22.80;54.70;;;;;;5170868;28;20360;-52
2021/05/20 14:30:19;;;;;;;4.22;1.33;;;22.80;54.50;;;;;;5169877;28;20060;-60
2021/05/20 14:33:12;;;;;;;9.50;1.88;;;22.80;54.30;;;;;;5175257;28;20049;-61
2021/05/20 14:35:45;;;;;;;5.55;1.10;;;22.80;54.20;;;;;;5166456;28;20053;-55
2021/05/20 14:38:17;;;;;;;4.35;0.80;;;22.80;54.10;;;;;;5165800;28;20049;-59
2021/05/20 14:40:50;;;;;;;2.78;1.00;;;22.80;53.90;;;;;;5163904;28;20394;-55
2021/05/20 14:43:22;;;;;;;11.32;1.13;;;22.80;53.80;;;;;;5164808;28;20041;-55
2021/05/20 14:45:55;;;;;;;5.82;1.27;;;22.80;53.70;;;;;;5162614;28;20797;-57
2021/05/20 14:48:30;;;;;;;;;;;22.80;53.70;;;;;;5167497;28;20052;-55
2021/05/20 14:51:14;;;;;;;3.58;0.90;;;22.80;53.70;;;;;;5168040;28;19931;-59
2021/05/20 14:54:07;;;;;;;10.80;1.17;;;22.80;53.60;;;;;;5172190;28;20061;-59
2021/05/20 15:05:02;;;;;;;8.48;1.13;;;22.90;55.70;;;;;;5192683;28;20413;-62
2021/05/20 15:07:35;;;;;;;7.20;0.90;;;22.90;55.70;;;;;;5179143;28;20441;-61
2021/05/20 15:13:29;;;;;;;13.13;1.27;;;22.90;56.40;;;;;;5168119;28;20304;-61
2021/05/20 15:15:49;;;;;;;12.50;1.27;;;23.00;56.40;;;;;;5164521;28;20052;-58
2021/05/20 15:18:23;;;;;;;3.40;0.70;;;22.90;56.30;;;;;;5174533;28;20500;-61
2021/05/20 15:20:56;;;;;;;10.90;1.52;;;22.90;56.50;;;;;;5167033;28;20060;-61
2021/05/20 15:23:29;;;;;;;11.43;1.40;;;23.00;56.80;;;;;;5164518;28;20045;-61
2021/05/20 15:26:01;;;;;;;12.77;1.38;;;23.00;56.70;;;;;;5135590;28;20359;-60
2021/05/20 15:28:34;;;;;;;12.73;2.22;;;23.00;57.20;;;;;;5162918;28;20422;-60
2021/05/20 15:31:07;;;;;;;14.93;1.45;;;23.00;57.10;;;;;;5158627;28;25885;-59
2021/05/20 15:33:39;;;;;;;12.27;1.52;;;23.00;57.10;;;;;;5159793;28;20065;-60
2021/05/20 15:36:17;;;;;;;10.85;1.42;;;23.00;57.30;;;;;;5158220;28;20065;-58
2021/05/20 15:38:49;;;;;;;13.38;1.73;;;23.00;57.30;;;;;;5161952;28;20315;-57
2021/05/20 15:41:22;;;;;;;16.85;2.80;;;23.10;57.20;;;;;;5163036;28;20241;-56
2021/05/20 15:43:55;;;;;;;5.78;1.25;;;23.10;57.30;;;;;;5170001;28;20046;-65
2021/05/20 15:46:27;;;;;;;12.50;1.55;;;23.10;57.50;;;;;;5151377;28;20435;-60
2021/05/20 15:52:15;;;;;;;16.10;2.03;;;23.00;57.10;;;;;;5139456;28;20572;-57
2021/05/20 15:54:48;;;;;;;24.77;2.47;;;23.10;58.00;;;;;;5142470;28;20421;-64
2021/05/20 15:57:20;;;;;;;16.63;1.92;;;23.10;57.30;;;;;;5139977;28;20057;-62
2021/05/20 15:59:53;;;;;;;14.10;2.10;;;23.00;57.10;;;;;;5153835;28;20448;-58
2021/05/20 16:02:26;;;;;;;11.02;2.35;;;23.00;57.20;;;;;;5158528;28;20049;-59
2021/05/20 16:05:06;;;;;;;34.95;3.00;;;23.00;57.10;;;;;;5146318;28;20056;-58
2021/05/20 16:07:48;;;;;;;14.98;1.98;;;22.90;57.20;;;;;;5144220;28;20471;-58
2021/05/20 16:13:33;;;;;;;12.23;1.90;;;22.90;57.20;;;;;;5162534;28;20060;-60
2021/05/20 16:16:01;;;;;;;17.92;2.28;;;22.90;57.30;;;;;;5149659;28;20410;-59
2021/05/20 16:18:34;;;;;;;7.53;1.80;;;22.90;57.20;;;;;;5140917;28;20057;-59
2021/05/20 16:21:08;;;;;;;7.35;2.08;;;22.90;57.40;;;;;;5144132;28;20893;-59
2021/05/20 16:24:04;;;;;;;11.60;2.00;;;22.80;57.30;;;;;;5146181;28;20050;-63
2021/05/20 16:38:04;;;;;;;13.13;1.95;;;22.80;56.50;;;;;;5146599;28;20041;-63
2021/05/20 16:40:38;;;;;;;16.75;1.73;;;22.80;56.00;;;;;;5151252;28;20049;-61
2021/05/20 16:43:11;;;;;;;11.35;2.17;;;22.80;55.90;;;;;;5171045;28;20058;-61
2021/05/20 16:45:44;;;;;;;10.95;2.28;;;22.80;55.90;;;;;;5163289;28;20050;-58
2021/05/20 16:48:17;;;;;;;9.50;2.87;;;22.80;55.90;;;;;;5124040;28;20409;-58
2021/05/20 16:50:49;;;;;;;11.90;1.63;;;22.80;56.70;;;;;;5152980;28;20033;-58
2021/05/20 16:53:22;;;;;;;18.75;2.33;;;22.80;56.20;;;;;;5147055;28;20064;-60
2021/05/20 16:56:14;;;;;;;9.15;1.40;;;22.70;56.40;;;;;;5152965;28;20041;-56
